sensor_id;sensor_type;location;lat;lon;timestamp;temperature;humidity
7998;DHT22;4044;49.814;7.828;2024-02-23T00:00:50;7.60;99.90
7998;DHT22;4044;49.814;7.828;2024-02-23T00:03:15;7.60;99.90
7998;DHT22;4044;49.814;7.828;2024-02-23T00:05:41;7.60;99.90
7998;DHT22;4044;49.814;7.828;2024-02-23T00:08:07;7.60;99.90
7998;DHT22;4044;49.814;7.828;2024-02-23T00:10:34;7.60;99.90
7998;DHT22;4044;49.814;7.828;2024-02-23T00:12:59;7.40;99.90
7998;DHT22;4044;49.814;7.828;2024-02-23T00:15:26;7.40;99.90
7998;DHT22;4044;49.814;7.828;2024-02-23T00:17:51;7.50;99.90
7998;DHT22;4044;49.814;7.828;2024-02-23T00:20:17;7.50;99.90
7998;DHT22;4044;49.814;7.828;2024-02-23T00:22:42;7.50;99.90
7998;DHT22;4044;49.814;7.828;2024-02-23T00:25:08;7.50;99.90
7998;DHT22;4044;49.814;7.828;2024-02-23T00:27:34;7.40;99.90
7998;DHT22;4044;49.814;7.828;2024-02-23T00:29:59;7.30;99.90
7998;DHT22;4044;49.814;7.828;2024-02-23T00:32:25;7.20;99.90
7998;DHT22;4044;49.814;7.828;2024-02-23T00:34:50;7.20;99.90
7998;DHT22;4044;49.814;7.828;2024-02-23T00:37:16;7.20;99.90
7998;DHT22;4044;49.814;7.828;2024-02-23T00:39:41;7.20;99.90
7998;DHT22;4044;49.814;7.828;2024-02-23T00:42:07;7.30;99.90
7998;DHT22;4044;49.814;7.828;2024-02-23T00:44:33;7.30;99.90
7998;DHT22;4044;49.814;7.828;2024-02-23T00:46:58;7.40;99.90
7998;DHT22;4044;49.814;7.828;2024-02-23T00:49:29;7.30;99.90
7998;DHT22;4044;49.814;7.828;2024-02-23T00:51:55;7.10;99.90
7998;DHT22;4044;49.814;7.828;2024-02-23T00:54:21;7.10;99.90
7998;DHT22;4044;49.814;7.828;2024-02-23T00:56:46;7.00;99.90
7998;DHT22;4044;49.814;7.828;2024-02-23T00:59:12;6.90;99.90
7998;DHT22;4044;49.814;7.828;2024-02-23T01:01:37;6.90;99.90
7998;DHT22;4044;49.814;7.828;2024-02-23T01:04:03;6.90;99.90
7998;DHT22;4044;49.814;7.828;2024-02-23T01:06:29;6.90;99.90
7998;DHT22;4044;49.814;7.828;2024-02-23T01:08:54;6.80;99.90
7998;DHT22;4044;49.814;7.828;2024-02-23T01:11:20;6.80;99.90
7998;DHT22;4044;49.814;7.828;2024-02-23T01:13:45;6.70;99.90
7998;DHT22;4044;49.814;7.828;2024-02-23T01:16:11;6.80;99.90
7998;DHT22;4044;49.814;7.828;2024-02-23T01:18:36;6.60;99.90
7998;DHT22;4044;49.814;7.828;2024-02-23T01:21:02;6.50;99.90
7998;DHT22;4044;49.814;7.828;2024-02-23T01:23:28;6.40;99.90
7998;DHT22;4044;49.814;7.828;2024-02-23T01:25:53;6.30;99.90
7998;DHT22;4044;49.814;7.828;2024-02-23T01:28:19;6.30;99.90
7998;DHT22;4044;49.814;7.828;2024-02-23T01:30:44;6.20;99.90
7998;DHT22;4044;49.814;7.828;2024-02-23T01:33:10;6.10;99.90
7998;DHT22;4044;49.814;7.828;2024-02-23T01:35:35;6.00;99.90
7998;DHT22;4044;49.814;7.828;2024-02-23T01:38:02;6.00;99.90
7998;DHT22;4044;49.814;7.828;2024-02-23T01:40:28;5.90;99.90
7998;DHT22;4044;49.814;7.828;2024-02-23T01:43:01;5.90;99.90
7998;DHT22;4044;49.814;7.828;2024-02-23T01:45:27;5.90;99.90
7998;DHT22;4044;49.814;7.828;2024-02-23T01:47:53;5.80;99.90
7998;DHT22;4044;49.814;7.828;2024-02-23T01:50:19;5.80;99.90
7998;DHT22;4044;49.814;7.828;2024-02-23T01:52:44;5.80;99.90
7998;DHT22;4044;49.814;7.828;2024-02-23T01:55:10;5.70;99.90
7998;DHT22;4044;49.814;7.828;2024-02-23T01:57:35;5.80;99.90
7998;DHT22;4044;49.814;7.828;2024-02-23T02:00:01;5.80;99.90
7998;DHT22;4044;49.814;7.828;2024-02-23T02:02:28;5.90;99.90
7998;DHT22;4044;49.814;7.828;2024-02-23T02:04:54;6.00;99.90
7998;DHT22;4044;49.814;7.828;2024-02-23T02:07:19;6.00;99.90
7998;DHT22;4044;49.814;7.828;2024-02-23T02:09:48;6.00;99.90
7998;DHT22;4044;49.814;7.828;2024-02-23T02:12:13;5.90;99.90
7998;DHT22;4044;49.814;7.828;2024-02-23T02:14:39;5.80;99.90
7998;DHT22;4044;49.814;7.828;2024-02-23T02:17:04;5.80;99.90
7998;DHT22;4044;49.814;7.828;2024-02-23T02:19:31;5.70;99.90
7998;DHT22;4044;49.814;7.828;2024-02-23T02:21:56;5.70;99.90
7998;DHT22;4044;49.814;7.828;2024-02-23T02:24:22;5.80;99.90
7998;DHT22;4044;49.814;7.828;2024-02-23T02:26:47;5.80;99.90
7998;DHT22;4044;49.814;7.828;2024-02-23T02:29:15;5.90;99.90
7998;DHT22;4044;49.814;7.828;2024-02-23T02:31:41;6.00;99.90
7998;DHT22;4044;49.814;7.828;2024-02-23T02:34:06;5.70;99.90
7998;DHT22;4044;49.814;7.828;2024-02-23T02:36:32;5.40;99.90
7998;DHT22;4044;49.814;7.828;2024-02-23T02:38:57;5.10;99.90
7998;DHT22;4044;49.814;7.828;2024-02-23T02:41:25;5.10;99.90
7998;DHT22;4044;49.814;7.828;2024-02-23T02:43:53;5.10;99.90
7998;DHT22;4044;49.814;7.828;2024-02-23T02:46:19;5.00;99.90
7998;DHT22;4044;49.814;7.828;2024-02-23T02:48:44;4.90;99.90
7998;DHT22;4044;49.814;7.828;2024-02-23T02:51:10;4.90;99.90
7998;DHT22;4044;49.814;7.828;2024-02-23T02:53:35;4.80;99.90
7998;DHT22;4044;49.814;7.828;2024-02-23T02:56:01;4.90;99.90
7998;DHT22;4044;49.814;7.828;2024-02-23T02:58:30;5.00;99.90
7998;DHT22;4044;49.814;7.828;2024-02-23T03:00:56;5.00;99.90
7998;DHT22;4044;49.814;7.828;2024-02-23T03:03:21;5.00;99.90
7998;DHT22;4044;49.814;7.828;2024-02-23T03:05:47;5.10;99.90
7998;DHT22;4044;49.814;7.828;2024-02-23T03:08:13;5.10;99.90
7998;DHT22;4044;49.814;7.828;2024-02-23T03:10:38;5.20;99.90
7998;DHT22;4044;49.814;7.828;2024-02-23T03:13:04;5.30;99.90
7998;DHT22;4044;49.814;7.828;2024-02-23T03:15:29;5.40;99.90
7998;DHT22;4044;49.814;7.828;2024-02-23T03:17:55;5.40;99.90
7998;DHT22;4044;49.814;7.828;2024-02-23T03:20:21;5.40;99.90
7998;DHT22;4044;49.814;7.828;2024-02-23T03:22:46;5.40;99.90
7998;DHT22;4044;49.814;7.828;2024-02-23T03:25:12;5.40;99.90
7998;DHT22;4044;49.814;7.828;2024-02-23T03:27:37;5.40;99.90
7998;DHT22;4044;49.814;7.828;2024-02-23T03:30:04;5.30;99.90
7998;DHT22;4044;49.814;7.828;2024-02-23T03:32:30;5.30;99.90
7998;DHT22;4044;49.814;7.828;2024-02-23T03:35:02;5.30;99.90
7998;DHT22;4044;49.814;7.828;2024-02-23T03:37:28;5.30;99.90
7998;DHT22;4044;49.814;7.828;2024-02-23T03:39:53;5.30;99.90
7998;DHT22;4044;49.814;7.828;2024-02-23T03:42:19;5.40;99.90
7998;DHT22;4044;49.814;7.828;2024-02-23T03:44:44;5.40;99.90
7998;DHT22;4044;49.814;7.828;2024-02-23T03:47:10;5.30;99.90
7998;DHT22;4044;49.814;7.828;2024-02-23T03:49:35;5.30;99.90
7998;DHT22;4044;49.814;7.828;2024-02-23T03:52:01;5.30;99.90
7998;DHT22;4044;49.814;7.828;2024-02-23T03:54:27;5.30;99.90
7998;DHT22;4044;49.814;7.828;2024-02-23T03:56:52;5.30;99.90
7998;DHT22;4044;49.814;7.828;2024-02-23T03:59:18;5.30;99.90
7998;DHT22;4044;49.814;7.828;2024-02-23T04:01:43;5.30;99.90
7998;DHT22;4044;49.814;7.828;2024-02-23T04:04:09;5.40;99.90
7998;DHT22;4044;49.814;7.828;2024-02-23T04:06:35;5.30;99.90
7998;DHT22;4044;49.814;7.828;2024-02-23T04:09:00;5.30;99.90
7998;DHT22;4044;49.814;7.828;2024-02-23T04:11:26;5.30;99.90
7998;DHT22;4044;49.814;7.828;2024-02-23T04:13:51;5.30;99.90
7998;DHT22;4044;49.814;7.828;2024-02-23T04:16:17;5.20;99.90
7998;DHT22;4044;49.814;7.828;2024-02-23T04:18:42;5.10;99.90
7998;DHT22;4044;49.814;7.828;2024-02-23T04:21:08;5.10;99.90
7998;DHT22;4044;49.814;7.828;2024-02-23T04:23:34;5.10;99.90
7998;DHT22;4044;49.814;7.828;2024-02-23T04:25:59;5.10;99.90
7998;DHT22;4044;49.814;7.828;2024-02-23T04:28:25;5.20;99.90
7998;DHT22;4044;49.814;7.828;2024-02-23T04:30:52;5.30;99.90
7998;DHT22;4044;49.814;7.828;2024-02-23T04:33:17;5.20;99.90
7998;DHT22;4044;49.814;7.828;2024-02-23T04:35:42;5.20;99.90
7998;DHT22;4044;49.814;7.828;2024-02-23T04:38:08;5.20;99.90
7998;DHT22;4044;49.814;7.828;2024-02-23T04:40:33;5.20;99.90
7998;DHT22;4044;49.814;7.828;2024-02-23T04:42:59;5.20;99.90
7998;DHT22;4044;49.814;7.828;2024-02-23T04:45:24;5.20;99.90
7998;DHT22;4044;49.814;7.828;2024-02-23T04:47:50;5.20;99.90
7998;DHT22;4044;49.814;7.828;2024-02-23T04:50:15;5.10;99.90
7998;DHT22;4044;49.814;7.828;2024-02-23T04:52:41;5.10;99.90
7998;DHT22;4044;49.814;7.828;2024-02-23T04:55:06;5.10;99.90
7998;DHT22;4044;49.814;7.828;2024-02-23T04:57:32;5.10;99.90
7998;DHT22;4044;49.814;7.828;2024-02-23T04:59:58;5.10;99.90
7998;DHT22;4044;49.814;7.828;2024-02-23T05:02:24;5.00;99.90
7998;DHT22;4044;49.814;7.828;2024-02-23T05:04:53;5.00;99.90
7998;DHT22;4044;49.814;7.828;2024-02-23T05:07:19;5.00;99.90
7998;DHT22;4044;49.814;7.828;2024-02-23T05:09:44;5.00;99.90
7998;DHT22;4044;49.814;7.828;2024-02-23T05:12:10;5.00;99.90
7998;DHT22;4044;49.814;7.828;2024-02-23T05:14:35;5.00;99.90
7998;DHT22;4044;49.814;7.828;2024-02-23T05:17:01;5.00;99.90
7998;DHT22;4044;49.814;7.828;2024-02-23T05:19:26;5.00;99.90
7998;DHT22;4044;49.814;7.828;2024-02-23T05:21:52;5.00;99.90
7998;DHT22;4044;49.814;7.828;2024-02-23T05:24:17;5.00;99.90
7998;DHT22;4044;49.814;7.828;2024-02-23T05:26:43;5.00;99.90
7998;DHT22;4044;49.814;7.828;2024-02-23T05:29:09;5.00;99.90
7998;DHT22;4044;49.814;7.828;2024-02-23T05:31:49;4.90;99.90
7998;DHT22;4044;49.814;7.828;2024-02-23T05:34:15;4.90;99.90
7998;DHT22;4044;49.814;7.828;2024-02-23T05:36:41;4.90;99.90
7998;DHT22;4044;49.814;7.828;2024-02-23T05:39:07;4.80;99.90
7998;DHT22;4044;49.814;7.828;2024-02-23T05:41:35;4.80;99.90
7998;DHT22;4044;49.814;7.828;2024-02-23T05:44:01;4.80;99.90
7998;DHT22;4044;49.814;7.828;2024-02-23T05:46:31;4.80;99.90
7998;DHT22;4044;49.814;7.828;2024-02-23T05:48:57;4.80;99.90
7998;DHT22;4044;49.814;7.828;2024-02-23T05:51:22;4.80;99.90
7998;DHT22;4044;49.814;7.828;2024-02-23T05:53:48;4.80;99.90
7998;DHT22;4044;49.814;7.828;2024-02-23T05:56:13;4.80;99.90
7998;DHT22;4044;49.814;7.828;2024-02-23T05:58:39;4.80;99.90
7998;DHT22;4044;49.814;7.828;2024-02-23T06:01:05;5.00;99.90
7998;DHT22;4044;49.814;7.828;2024-02-23T06:03:30;5.20;99.90
7998;DHT22;4044;49.814;7.828;2024-02-23T06:05:56;5.40;99.90
7998;DHT22;4044;49.814;7.828;2024-02-23T06:08:21;5.50;99.90
7998;DHT22;4044;49.814;7.828;2024-02-23T06:10:47;5.50;99.90
7998;DHT22;4044;49.814;7.828;2024-02-23T06:13:13;5.60;99.90
7998;DHT22;4044;49.814;7.828;2024-02-23T06:15:38;5.70;99.90
7998;DHT22;4044;49.814;7.828;2024-02-23T06:18:04;5.80;99.90
7998;DHT22;4044;49.814;7.828;2024-02-23T06:20:30;5.90;99.90
7998;DHT22;4044;49.814;7.828;2024-02-23T06:22:56;5.90;99.90
7998;DHT22;4044;49.814;7.828;2024-02-23T06:25:21;5.90;99.90
7998;DHT22;4044;49.814;7.828;2024-02-23T06:27:47;6.00;99.90
7998;DHT22;4044;49.814;7.828;2024-02-23T06:30:12;6.00;99.90
7998;DHT22;4044;49.814;7.828;2024-02-23T06:32:38;6.00;99.90
7998;DHT22;4044;49.814;7.828;2024-02-23T06:35:03;5.90;99.90
7998;DHT22;4044;49.814;7.828;2024-02-23T06:37:32;5.90;99.90
7998;DHT22;4044;49.814;7.828;2024-02-23T06:39:57;5.90;99.90
7998;DHT22;4044;49.814;7.828;2024-02-23T06:42:23;5.90;99.90
7998;DHT22;4044;49.814;7.828;2024-02-23T06:44:49;6.10;99.90
7998;DHT22;4044;49.814;7.828;2024-02-23T06:47:15;6.10;99.90
7998;DHT22;4044;49.814;7.828;2024-02-23T06:49:43;6.00;99.90
7998;DHT22;4044;49.814;7.828;2024-02-23T06:52:09;6.00;99.90
7998;DHT22;4044;49.814;7.828;2024-02-23T06:54:35;6.00;99.90
7998;DHT22;4044;49.814;7.828;2024-02-23T06:57:01;5.90;99.90
7998;DHT22;4044;49.814;7.828;2024-02-23T06:59:27;5.90;99.90
7998;DHT22;4044;49.814;7.828;2024-02-23T07:01:52;5.90;99.90
7998;DHT22;4044;49.814;7.828;2024-02-23T07:04:19;6.00;99.90
7998;DHT22;4044;49.814;7.828;2024-02-23T07:06:44;6.00;99.90
7998;DHT22;4044;49.814;7.828;2024-02-23T07:09:10;6.10;99.90
7998;DHT22;4044;49.814;7.828;2024-02-23T07:11:37;6.20;99.90
7998;DHT22;4044;49.814;7.828;2024-02-23T07:14:03;6.20;99.90
7998;DHT22;4044;49.814;7.828;2024-02-23T07:16:29;6.30;99.90
7998;DHT22;4044;49.814;7.828;2024-02-23T07:18:54;6.40;99.90
7998;DHT22;4044;49.814;7.828;2024-02-23T07:21:20;6.50;99.90
7998;DHT22;4044;49.814;7.828;2024-02-23T07:23:46;6.50;99.90
7998;DHT22;4044;49.814;7.828;2024-02-23T07:26:12;6.60;99.90
7998;DHT22;4044;49.814;7.828;2024-02-23T07:28:37;6.70;99.90
7998;DHT22;4044;49.814;7.828;2024-02-23T07:31:03;6.60;99.90
7998;DHT22;4044;49.814;7.828;2024-02-23T07:33:28;6.70;99.90
7998;DHT22;4044;49.814;7.828;2024-02-23T07:35:54;6.70;99.90
7998;DHT22;4044;49.814;7.828;2024-02-23T07:38:19;6.60;99.90
7998;DHT22;4044;49.814;7.828;2024-02-23T07:40:45;6.70;99.90
7998;DHT22;4044;49.814;7.828;2024-02-23T07:43:10;6.70;99.90
7998;DHT22;4044;49.814;7.828;2024-02-23T07:45:36;6.80;99.90
7998;DHT22;4044;49.814;7.828;2024-02-23T07:48:02;6.80;99.90
7998;DHT22;4044;49.814;7.828;2024-02-23T07:50:28;6.80;99.90
7998;DHT22;4044;49.814;7.828;2024-02-23T07:52:53;6.70;99.90
7998;DHT22;4044;49.814;7.828;2024-02-23T07:55:19;6.90;99.90
7998;DHT22;4044;49.814;7.828;2024-02-23T07:57:44;6.70;99.90
7998;DHT22;4044;49.814;7.828;2024-02-23T08:00:10;6.80;99.90
7998;DHT22;4044;49.814;7.828;2024-02-23T08:02:37;7.00;99.90
7998;DHT22;4044;49.814;7.828;2024-02-23T08:05:03;7.10;99.90
7998;DHT22;4044;49.814;7.828;2024-02-23T08:07:29;7.10;99.90
7998;DHT22;4044;49.814;7.828;2024-02-23T08:09:57;7.20;99.90
7998;DHT22;4044;49.814;7.828;2024-02-23T08:12:22;7.30;99.90
7998;DHT22;4044;49.814;7.828;2024-02-23T08:14:48;7.50;99.90
7998;DHT22;4044;49.814;7.828;2024-02-23T08:17:15;7.40;99.90
7998;DHT22;4044;49.814;7.828;2024-02-23T08:19:41;7.40;99.90
7998;DHT22;4044;49.814;7.828;2024-02-23T08:22:07;7.50;99.90
7998;DHT22;4044;49.814;7.828;2024-02-23T08:24:32;7.40;99.90
7998;DHT22;4044;49.814;7.828;2024-02-23T08:26:58;7.50;99.90
7998;DHT22;4044;49.814;7.828;2024-02-23T08:29:23;7.70;99.90
7998;DHT22;4044;49.814;7.828;2024-02-23T08:31:49;7.70;99.90
7998;DHT22;4044;49.814;7.828;2024-02-23T08:34:14;7.60;99.90
7998;DHT22;4044;49.814;7.828;2024-02-23T08:36:40;7.30;99.90
7998;DHT22;4044;49.814;7.828;2024-02-23T08:39:05;7.30;99.90
7998;DHT22;4044;49.814;7.828;2024-02-23T08:41:31;7.40;99.90
7998;DHT22;4044;49.814;7.828;2024-02-23T08:43:56;7.50;99.90
7998;DHT22;4044;49.814;7.828;2024-02-23T08:46:22;7.70;99.90
7998;DHT22;4044;49.814;7.828;2024-02-23T08:48:48;7.60;99.90
7998;DHT22;4044;49.814;7.828;2024-02-23T08:51:13;7.40;99.90
7998;DHT22;4044;49.814;7.828;2024-02-23T08:53:39;7.30;99.90
7998;DHT22;4044;49.814;7.828;2024-02-23T08:56:06;7.20;99.90
7998;DHT22;4044;49.814;7.828;2024-02-23T08:58:32;7.30;99.90
7998;DHT22;4044;49.814;7.828;2024-02-23T09:00:58;7.40;99.90
7998;DHT22;4044;49.814;7.828;2024-02-23T09:03:23;7.50;99.90
7998;DHT22;4044;49.814;7.828;2024-02-23T09:05:49;7.70;99.90
7998;DHT22;4044;49.814;7.828;2024-02-23T09:08:15;7.80;99.90
7998;DHT22;4044;49.814;7.828;2024-02-23T09:10:41;7.90;99.90
7998;DHT22;4044;49.814;7.828;2024-02-23T09:13:06;7.90;99.90
7998;DHT22;4044;49.814;7.828;2024-02-23T09:15:32;8.00;99.90
7998;DHT22;4044;49.814;7.828;2024-02-23T09:17:57;8.00;99.90
7998;DHT22;4044;49.814;7.828;2024-02-23T09:20:23;8.10;99.90
7998;DHT22;4044;49.814;7.828;2024-02-23T09:22:48;8.20;99.90
7998;DHT22;4044;49.814;7.828;2024-02-23T09:25:14;8.30;99.50
7998;DHT22;4044;49.814;7.828;2024-02-23T09:27:40;8.40;99.90
7998;DHT22;4044;49.814;7.828;2024-02-23T09:30:13;8.30;99.50
7998;DHT22;4044;49.814;7.828;2024-02-23T09:32:39;8.30;99.90
7998;DHT22;4044;49.814;7.828;2024-02-23T09:35:05;8.20;99.10
7998;DHT22;4044;49.814;7.828;2024-02-23T09:37:32;8.40;99.30
7998;DHT22;4044;49.814;7.828;2024-02-23T09:39:57;8.50;99.50
7998;DHT22;4044;49.814;7.828;2024-02-23T09:42:23;8.70;98.90
7998;DHT22;4044;49.814;7.828;2024-02-23T09:44:58;8.80;98.80
7998;DHT22;4044;49.814;7.828;2024-02-23T09:47:26;8.80;99.20
7998;DHT22;4044;49.814;7.828;2024-02-23T09:49:53;8.70;99.40
7998;DHT22;4044;49.814;7.828;2024-02-23T09:52:19;8.70;99.30
7998;DHT22;4044;49.814;7.828;2024-02-23T09:54:45;8.90;99.90
7998;DHT22;4044;49.814;7.828;2024-02-23T09:57:11;8.90;99.40
7998;DHT22;4044;49.814;7.828;2024-02-23T09:59:37;8.90;99.90
7998;DHT22;4044;49.814;7.828;2024-02-23T10:02:09;8.50;99.90
7998;DHT22;4044;49.814;7.828;2024-02-23T10:04:42;8.30;99.90
7998;DHT22;4044;49.814;7.828;2024-02-23T10:07:09;8.30;99.90
7998;DHT22;4044;49.814;7.828;2024-02-23T10:09:34;8.30;99.50
7998;DHT22;4044;49.814;7.828;2024-02-23T10:12:03;8.40;99.60
7998;DHT22;4044;49.814;7.828;2024-02-23T10:14:29;8.60;99.70
7998;DHT22;4044;49.814;7.828;2024-02-23T10:16:54;8.60;99.60
7998;DHT22;4044;49.814;7.828;2024-02-23T10:19:21;8.70;99.40
7998;DHT22;4044;49.814;7.828;2024-02-23T10:21:46;8.80;99.00
7998;DHT22;4044;49.814;7.828;2024-02-23T10:24:13;8.80;98.80
7998;DHT22;4044;49.814;7.828;2024-02-23T10:26:41;8.90;99.40
7998;DHT22;4044;49.814;7.828;2024-02-23T10:29:07;8.90;99.90
7998;DHT22;4044;49.814;7.828;2024-02-23T10:31:35;8.90;99.90
7998;DHT22;4044;49.814;7.828;2024-02-23T10:34:09;9.00;99.90
7998;DHT22;4044;49.814;7.828;2024-02-23T10:36:40;9.00;98.70
7998;DHT22;4044;49.814;7.828;2024-02-23T10:39:08;9.20;98.90
7998;DHT22;4044;49.814;7.828;2024-02-23T10:41:35;9.50;98.40
7998;DHT22;4044;49.814;7.828;2024-02-23T10:44:03;9.70;98.10
7998;DHT22;4044;49.814;7.828;2024-02-23T10:46:31;9.90;98.20
7998;DHT22;4044;49.814;7.828;2024-02-23T10:48:58;9.80;97.20
7998;DHT22;4044;49.814;7.828;2024-02-23T10:51:25;9.70;96.80
7998;DHT22;4044;49.814;7.828;2024-02-23T10:53:52;9.60;97.20
7998;DHT22;4044;49.814;7.828;2024-02-23T10:56:18;9.60;97.90
7998;DHT22;4044;49.814;7.828;2024-02-23T10:58:43;9.80;97.60
7998;DHT22;4044;49.814;7.828;2024-02-23T11:01:09;9.90;97.10
7998;DHT22;4044;49.814;7.828;2024-02-23T11:03:37;10.00;96.30
7998;DHT22;4044;49.814;7.828;2024-02-23T11:06:06;10.00;96.00
7998;DHT22;4044;49.814;7.828;2024-02-23T11:08:33;9.50;96.70
7998;DHT22;4044;49.814;7.828;2024-02-23T11:11:07;9.20;97.20
7998;DHT22;4044;49.814;7.828;2024-02-23T11:13:37;9.30;97.50
7998;DHT22;4044;49.814;7.828;2024-02-23T11:16:03;9.20;96.30
7998;DHT22;4044;49.814;7.828;2024-02-23T11:18:30;9.20;96.70
7998;DHT22;4044;49.814;7.828;2024-02-23T11:20:59;9.50;96.60
7998;DHT22;4044;49.814;7.828;2024-02-23T11:23:25;9.70;96.80
7998;DHT22;4044;49.814;7.828;2024-02-23T11:28:28;9.60;96.90
7998;DHT22;4044;49.814;7.828;2024-02-23T11:30:54;9.80;97.00
7998;DHT22;4044;49.814;7.828;2024-02-23T11:33:26;9.90;96.40
7998;DHT22;4044;49.814;7.828;2024-02-23T11:35:52;10.20;95.80
7998;DHT22;4044;49.814;7.828;2024-02-23T11:38:18;10.40;94.80
7998;DHT22;4044;49.814;7.828;2024-02-23T11:40:46;10.20;93.70
7998;DHT22;4044;49.814;7.828;2024-02-23T11:43:14;10.30;94.70
7998;DHT22;4044;49.814;7.828;2024-02-23T11:45:40;10.20;93.10
7998;DHT22;4044;49.814;7.828;2024-02-23T11:48:06;10.40;93.50
7998;DHT22;4044;49.814;7.828;2024-02-23T11:50:32;10.70;94.10
7998;DHT22;4044;49.814;7.828;2024-02-23T11:52:59;11.00;92.40
7998;DHT22;4044;49.814;7.828;2024-02-23T11:55:25;11.20;93.10
7998;DHT22;4044;49.814;7.828;2024-02-23T11:57:51;11.40;92.50
7998;DHT22;4044;49.814;7.828;2024-02-23T12:00:17;11.10;91.80
7998;DHT22;4044;49.814;7.828;2024-02-23T12:02:46;11.30;93.40
7998;DHT22;4044;49.814;7.828;2024-02-23T12:05:16;11.30;93.10
7998;DHT22;4044;49.814;7.828;2024-02-23T12:07:41;10.90;92.40
7998;DHT22;4044;49.814;7.828;2024-02-23T12:10:08;10.80;93.00
7998;DHT22;4044;49.814;7.828;2024-02-23T12:12:33;10.40;92.20
7998;DHT22;4044;49.814;7.828;2024-02-23T12:14:59;10.40;93.10
7998;DHT22;4044;49.814;7.828;2024-02-23T12:17:25;10.30;92.80
7998;DHT22;4044;49.814;7.828;2024-02-23T12:20:01;10.20;93.00
7998;DHT22;4044;49.814;7.828;2024-02-23T12:22:27;10.40;93.50
7998;DHT22;4044;49.814;7.828;2024-02-23T12:24:52;10.30;93.20
7998;DHT22;4044;49.814;7.828;2024-02-23T12:27:18;10.20;93.20
7998;DHT22;4044;49.814;7.828;2024-02-23T12:29:52;10.40;93.60
7998;DHT22;4044;49.814;7.828;2024-02-23T12:32:20;10.50;93.60
7998;DHT22;4044;49.814;7.828;2024-02-23T12:34:47;10.60;93.10
7998;DHT22;4044;49.814;7.828;2024-02-23T12:37:16;10.80;93.60
7998;DHT22;4044;49.814;7.828;2024-02-23T12:39:42;11.40;93.20
7998;DHT22;4044;49.814;7.828;2024-02-23T12:42:08;11.90;92.50
7998;DHT22;4044;49.814;7.828;2024-02-23T12:44:34;12.00;91.80
7998;DHT22;4044;49.814;7.828;2024-02-23T12:46:59;12.10;91.20
7998;DHT22;4044;49.814;7.828;2024-02-23T12:49:25;12.70;92.40
7998;DHT22;4044;49.814;7.828;2024-02-23T12:51:50;13.40;91.40
7998;DHT22;4044;49.814;7.828;2024-02-23T12:54:16;13.40;88.10
7998;DHT22;4044;49.814;7.828;2024-02-23T12:56:41;12.80;88.60
7998;DHT22;4044;49.814;7.828;2024-02-23T12:59:08;13.00;87.60
7998;DHT22;4044;49.814;7.828;2024-02-23T13:01:37;13.10;90.00
7998;DHT22;4044;49.814;7.828;2024-02-23T13:04:04;13.40;90.20
7998;DHT22;4044;49.814;7.828;2024-02-23T13:06:38;13.20;88.30
7998;DHT22;4044;49.814;7.828;2024-02-23T13:09:05;13.30;90.90
7998;DHT22;4044;49.814;7.828;2024-02-23T13:11:37;13.30;90.20
7998;DHT22;4044;49.814;7.828;2024-02-23T13:14:03;12.60;89.00
7998;DHT22;4044;49.814;7.828;2024-02-23T13:16:29;12.30;88.20
7998;DHT22;4044;49.814;7.828;2024-02-23T13:18:55;11.90;90.00
7998;DHT22;4044;49.814;7.828;2024-02-23T13:21:20;11.90;90.70
7998;DHT22;4044;49.814;7.828;2024-02-23T13:23:46;11.70;90.90
7998;DHT22;4044;49.814;7.828;2024-02-23T13:26:11;11.70;88.30
7998;DHT22;4044;49.814;7.828;2024-02-23T13:28:41;11.60;90.60
7998;DHT22;4044;49.814;7.828;2024-02-23T13:31:06;11.70;90.80
7998;DHT22;4044;49.814;7.828;2024-02-23T13:33:32;11.60;90.50
7998;DHT22;4044;49.814;7.828;2024-02-23T13:35:58;11.50;90.40
7998;DHT22;4044;49.814;7.828;2024-02-23T13:38:24;11.40;90.30
7998;DHT22;4044;49.814;7.828;2024-02-23T13:40:49;11.50;90.90
7998;DHT22;4044;49.814;7.828;2024-02-23T13:43:15;11.50;90.30
7998;DHT22;4044;49.814;7.828;2024-02-23T13:45:51;11.50;89.50
7998;DHT22;4044;49.814;7.828;2024-02-23T13:48:18;11.50;90.20
7998;DHT22;4044;49.814;7.828;2024-02-23T13:50:44;11.60;90.20
7998;DHT22;4044;49.814;7.828;2024-02-23T13:53:11;11.50;88.50
7998;DHT22;4044;49.814;7.828;2024-02-23T13:55:38;11.70;90.40
7998;DHT22;4044;49.814;7.828;2024-02-23T13:58:03;11.80;90.60
7998;DHT22;4044;49.814;7.828;2024-02-23T14:00:29;11.80;90.70
7998;DHT22;4044;49.814;7.828;2024-02-23T14:02:54;11.60;89.20
7998;DHT22;4044;49.814;7.828;2024-02-23T14:05:20;11.50;89.40
7998;DHT22;4044;49.814;7.828;2024-02-23T14:07:47;11.50;89.60
7998;DHT22;4044;49.814;7.828;2024-02-23T14:10:13;11.70;90.00
7998;DHT22;4044;49.814;7.828;2024-02-23T14:12:40;12.60;90.40
7998;DHT22;4044;49.814;7.828;2024-02-23T14:15:06;13.70;90.00
7998;DHT22;4044;49.814;7.828;2024-02-23T14:17:32;14.00;83.70
7998;DHT22;4044;49.814;7.828;2024-02-23T14:19:57;14.40;85.20
7998;DHT22;4044;49.814;7.828;2024-02-23T14:22:23;14.80;82.30
7998;DHT22;4044;49.814;7.828;2024-02-23T14:24:49;15.20;82.50
7998;DHT22;4044;49.814;7.828;2024-02-23T14:27:14;15.80;81.80
7998;DHT22;4044;49.814;7.828;2024-02-23T14:29:40;16.50;80.20
7998;DHT22;4044;49.814;7.828;2024-02-23T14:32:05;16.90;81.60
7998;DHT22;4044;49.814;7.828;2024-02-23T14:34:31;17.20;81.40
7998;DHT22;4044;49.814;7.828;2024-02-23T14:36:59;17.40;81.10
7998;DHT22;4044;49.814;7.828;2024-02-23T14:39:24;17.30;76.40
7998;DHT22;4044;49.814;7.828;2024-02-23T14:41:50;16.80;78.60
7998;DHT22;4044;49.814;7.828;2024-02-23T14:44:15;17.30;76.20
7998;DHT22;4044;49.814;7.828;2024-02-23T14:46:41;17.30;75.90
7998;DHT22;4044;49.814;7.828;2024-02-23T14:49:07;17.40;76.10
7998;DHT22;4044;49.814;7.828;2024-02-23T14:51:32;17.40;74.10
7998;DHT22;4044;49.814;7.828;2024-02-23T14:53:59;17.00;75.00
7998;DHT22;4044;49.814;7.828;2024-02-23T14:56:27;17.00;77.90
7998;DHT22;4044;49.814;7.828;2024-02-23T14:58:53;17.10;76.40
7998;DHT22;4044;49.814;7.828;2024-02-23T15:01:18;17.20;74.60
7998;DHT22;4044;49.814;7.828;2024-02-23T15:03:44;16.40;75.70
7998;DHT22;4044;49.814;7.828;2024-02-23T15:06:09;15.90;75.50
7998;DHT22;4044;49.814;7.828;2024-02-23T15:08:36;14.90;75.20
7998;DHT22;4044;49.814;7.828;2024-02-23T15:11:02;14.70;78.40
7998;DHT22;4044;49.814;7.828;2024-02-23T15:13:28;14.50;79.20
7998;DHT22;4044;49.814;7.828;2024-02-23T15:15:53;14.30;78.20
7998;DHT22;4044;49.814;7.828;2024-02-23T15:18:19;14.20;78.30
7998;DHT22;4044;49.814;7.828;2024-02-23T15:20:45;14.20;80.80
7998;DHT22;4044;49.814;7.828;2024-02-23T15:23:12;13.90;79.80
7998;DHT22;4044;49.814;7.828;2024-02-23T15:25:38;13.70;81.40
7998;DHT22;4044;49.814;7.828;2024-02-23T15:28:04;13.70;81.50
7998;DHT22;4044;49.814;7.828;2024-02-23T15:30:30;13.30;81.40
7998;DHT22;4044;49.814;7.828;2024-02-23T15:32:55;13.10;81.50
7998;DHT22;4044;49.814;7.828;2024-02-23T15:35:21;12.90;80.80
7998;DHT22;4044;49.814;7.828;2024-02-23T15:37:46;12.70;81.40
7998;DHT22;4044;49.814;7.828;2024-02-23T15:40:12;12.60;83.60
7998;DHT22;4044;49.814;7.828;2024-02-23T15:42:38;12.50;82.90
7998;DHT22;4044;49.814;7.828;2024-02-23T15:45:04;12.30;84.40
7998;DHT22;4044;49.814;7.828;2024-02-23T15:47:33;12.00;86.10
7998;DHT22;4044;49.814;7.828;2024-02-23T15:49:59;11.70;89.20
7998;DHT22;4044;49.814;7.828;2024-02-23T15:52:25;10.80;90.70
7998;DHT22;4044;49.814;7.828;2024-02-23T15:54:52;9.80;93.60
7998;DHT22;4044;49.814;7.828;2024-02-23T15:57:18;8.80;97.00
7998;DHT22;4044;49.814;7.828;2024-02-23T15:59:45;8.40;99.50
7998;DHT22;4044;49.814;7.828;2024-02-23T16:02:11;7.90;99.90
7998;DHT22;4044;49.814;7.828;2024-02-23T16:04:36;7.40;99.90
7998;DHT22;4044;49.814;7.828;2024-02-23T16:07:02;7.30;99.90
7998;DHT22;4044;49.814;7.828;2024-02-23T16:09:28;7.50;99.90